CheckWX is a tool to help pilots better visualize weather data.  It is not intended as a substitute for an official pre-flight weather briefing.

00:39:21 UTC

DTTF METAR
Gafsa Ksar International Airport
Gafsa, Tunisia
Current

39 mins ago

DTTF 270000Z AUTO 05014KT NCD 14/11 Q1016
Observed
Mar-27 @ 00:00 UTC
Wind
  • 050° at 14 KTS
Visibility
Cloud Levels
  • Clear skies
Temperature
14°C / 57°F
Dewpoint
11°C / 52°F
Humidity
82%
Altimeter
30" Hg
Pressure
1015.92 hPa
Previous

2 hours ago

DTTF 262300Z 05017KT 8000 SCT023 SCT030 14/10 Q1015 NOSIG
Observed
Mar-26 @ 23:00 UTC
Wind
  • 050° at 17 KTS
Visibility
7,998 meters
Flight Rules
MVFR
Cloud Levels
  • Scattered at 2,300' AGL
  • Scattered at 3,000' AGL
Temperature
14°C / 57°F
Dewpoint
10°C / 50°F
Humidity
77%
Altimeter
29.97" Hg
Pressure
1014.92 hPa
Previous

3 hours ago

DTTF 262200Z 04017KT 8000 SCT023 SCT030 15/11 Q1015 NOSIG
Observed
Mar-26 @ 22:00 UTC
Wind
  • 040° at 17 KTS
Visibility
7,998 meters
Flight Rules
MVFR
Cloud Levels
  • Scattered at 2,300' AGL
  • Scattered at 3,000' AGL
Temperature
15°C / 59°F
Dewpoint
11°C / 52°F
Humidity
77%
Altimeter
29.97" Hg
Pressure
1014.92 hPa